sensor_id;sensor_type;location;lat;lon;timestamp;P1;durP1;ratioP1;P2;durP2;ratioP2
12348;SDS011;5974;42.710;27.258;2023-10-13T00:01:54;2.73;;;1.70;;
12348;SDS011;5974;42.710;27.258;2023-10-13T00:04:24;3.97;;;1.87;;
12348;SDS011;5974;42.710;27.258;2023-10-13T00:06:51;4.17;;;1.60;;
12348;SDS011;5974;42.710;27.258;2023-10-13T00:09:18;3.83;;;1.60;;
12348;SDS011;5974;42.710;27.258;2023-10-13T00:11:50;2.07;;;1.50;;
12348;SDS011;5974;42.710;27.258;2023-10-13T00:14:19;4.50;;;1.60;;
12348;SDS011;5974;42.710;27.258;2023-10-13T00:16:47;3.03;;;1.67;;
12348;SDS011;5974;42.710;27.258;2023-10-13T00:19:29;4.13;;;1.40;;
12348;SDS011;5974;42.710;27.258;2023-10-13T00:22:06;3.23;;;1.40;;
12348;SDS011;5974;42.710;27.258;2023-10-13T00:24:37;3.10;;;1.67;;
12348;SDS011;5974;42.710;27.258;2023-10-13T00:27:10;3.70;;;1.40;;
12348;SDS011;5974;42.710;27.258;2023-10-13T00:29:54;2.97;;;1.83;;
12348;SDS011;5974;42.710;27.258;2023-10-13T00:32:41;2.80;;;1.50;;
12348;SDS011;5974;42.710;27.258;2023-10-13T00:35:13;2.87;;;1.60;;
12348;SDS011;5974;42.710;27.258;2023-10-13T00:37:49;3.13;;;1.83;;
12348;SDS011;5974;42.710;27.258;2023-10-13T00:40:18;2.50;;;1.47;;
12348;SDS011;5974;42.710;27.258;2023-10-13T00:43:06;2.03;;;1.60;;
12348;SDS011;5974;42.710;27.258;2023-10-13T00:45:48;1.53;;;1.43;;
12348;SDS011;5974;42.710;27.258;2023-10-13T00:48:22;2.40;;;1.70;;
12348;SDS011;5974;42.710;27.258;2023-10-13T00:50:55;2.10;;;1.67;;
12348;SDS011;5974;42.710;27.258;2023-10-13T00:53:25;2.57;;;1.50;;
12348;SDS011;5974;42.710;27.258;2023-10-13T00:55:51;3.10;;;1.50;;
12348;SDS011;5974;42.710;27.258;2023-10-13T00:58:21;3.50;;;1.57;;
12348;SDS011;5974;42.710;27.258;2023-10-13T01:00:48;3.47;;;1.43;;
12348;SDS011;5974;42.710;27.258;2023-10-13T01:03:21;1.93;;;1.30;;
12348;SDS011;5974;42.710;27.258;2023-10-13T01:05:51;2.33;;;1.50;;
12348;SDS011;5974;42.710;27.258;2023-10-13T01:08:31;3.47;;;1.30;;
12348;SDS011;5974;42.710;27.258;2023-10-13T01:10:59;2.23;;;1.47;;
12348;SDS011;5974;42.710;27.258;2023-10-13T01:13:26;1.37;;;1.20;;
12348;SDS011;5974;42.710;27.258;2023-10-13T01:15:52;4.17;;;1.50;;
12348;SDS011;5974;42.710;27.258;2023-10-13T01:18:20;3.70;;;1.50;;
12348;SDS011;5974;42.710;27.258;2023-10-13T01:20:46;2.03;;;1.67;;
12348;SDS011;5974;42.710;27.258;2023-10-13T01:23:18;3.13;;;1.70;;
12348;SDS011;5974;42.710;27.258;2023-10-13T01:25:44;3.27;;;1.77;;
12348;SDS011;5974;42.710;27.258;2023-10-13T01:28:13;1.80;;;1.50;;
12348;SDS011;5974;42.710;27.258;2023-10-13T01:30:41;1.90;;;1.50;;
12348;SDS011;5974;42.710;27.258;2023-10-13T01:33:09;3.53;;;1.57;;
12348;SDS011;5974;42.710;27.258;2023-10-13T01:35:36;1.80;;;1.37;;
12348;SDS011;5974;42.710;27.258;2023-10-13T01:38:07;3.90;;;1.80;;
12348;SDS011;5974;42.710;27.258;2023-10-13T01:40:35;3.93;;;1.47;;
12348;SDS011;5974;42.710;27.258;2023-10-13T01:43:02;5.93;;;1.90;;
12348;SDS011;5974;42.710;27.258;2023-10-13T01:45:29;2.83;;;1.70;;
12348;SDS011;5974;42.710;27.258;2023-10-13T01:47:56;2.93;;;1.73;;
12348;SDS011;5974;42.710;27.258;2023-10-13T01:50:22;2.70;;;1.63;;
12348;SDS011;5974;42.710;27.258;2023-10-13T01:52:55;2.30;;;1.70;;
12348;SDS011;5974;42.710;27.258;2023-10-13T01:55:38;3.73;;;1.30;;
12348;SDS011;5974;42.710;27.258;2023-10-13T01:58:08;1.57;;;1.40;;
12348;SDS011;5974;42.710;27.258;2023-10-13T02:00:40;5.73;;;1.70;;
12348;SDS011;5974;42.710;27.258;2023-10-13T02:03:08;2.47;;;1.53;;
12348;SDS011;5974;42.710;27.258;2023-10-13T02:05:41;4.17;;;1.50;;
12348;SDS011;5974;42.710;27.258;2023-10-13T02:08:12;2.27;;;1.40;;
12348;SDS011;5974;42.710;27.258;2023-10-13T02:10:44;3.83;;;1.97;;
12348;SDS011;5974;42.710;27.258;2023-10-13T02:13:15;2.30;;;1.70;;
12348;SDS011;5974;42.710;27.258;2023-10-13T02:15:43;2.83;;;1.50;;
12348;SDS011;5974;42.710;27.258;2023-10-13T02:18:13;2.73;;;1.47;;
12348;SDS011;5974;42.710;27.258;2023-10-13T02:20:40;1.90;;;1.63;;
12348;SDS011;5974;42.710;27.258;2023-10-13T02:23:11;2.80;;;1.57;;
12348;SDS011;5974;42.710;27.258;2023-10-13T02:25:37;2.07;;;1.50;;
12348;SDS011;5974;42.710;27.258;2023-10-13T02:28:12;2.50;;;1.40;;
12348;SDS011;5974;42.710;27.258;2023-10-13T02:30:39;2.00;;;1.40;;
12348;SDS011;5974;42.710;27.258;2023-10-13T02:33:12;3.00;;;1.50;;
12348;SDS011;5974;42.710;27.258;2023-10-13T02:35:39;2.63;;;1.40;;
12348;SDS011;5974;42.710;27.258;2023-10-13T02:38:16;3.00;;;1.60;;
12348;SDS011;5974;42.710;27.258;2023-10-13T02:40:51;1.87;;;1.40;;
12348;SDS011;5974;42.710;27.258;2023-10-13T02:43:20;3.33;;;1.60;;
12348;SDS011;5974;42.710;27.258;2023-10-13T02:45:54;4.47;;;1.60;;
12348;SDS011;5974;42.710;27.258;2023-10-13T02:48:24;2.17;;;1.60;;
12348;SDS011;5974;42.710;27.258;2023-10-13T02:50:54;1.93;;;1.30;;
12348;SDS011;5974;42.710;27.258;2023-10-13T02:53:22;3.73;;;1.50;;
12348;SDS011;5974;42.710;27.258;2023-10-13T02:55:51;2.57;;;1.53;;
12348;SDS011;5974;42.710;27.258;2023-10-13T02:58:22;8.13;;;2.20;;
12348;SDS011;5974;42.710;27.258;2023-10-13T03:00:48;2.57;;;1.40;;
12348;SDS011;5974;42.710;27.258;2023-10-13T03:03:15;3.20;;;2.23;;
12348;SDS011;5974;42.710;27.258;2023-10-13T03:05:44;3.00;;;1.57;;
12348;SDS011;5974;42.710;27.258;2023-10-13T03:08:11;2.93;;;1.57;;
12348;SDS011;5974;42.710;27.258;2023-10-13T03:10:43;2.53;;;1.77;;
12348;SDS011;5974;42.710;27.258;2023-10-13T03:13:14;1.57;;;1.47;;
12348;SDS011;5974;42.710;27.258;2023-10-13T03:15:41;2.43;;;1.70;;
12348;SDS011;5974;42.710;27.258;2023-10-13T03:18:12;3.83;;;1.77;;
12348;SDS011;5974;42.710;27.258;2023-10-13T03:20:43;1.93;;;1.50;;
12348;SDS011;5974;42.710;27.258;2023-10-13T03:23:15;2.93;;;1.73;;
12348;SDS011;5974;42.710;27.258;2023-10-13T03:25:41;3.33;;;1.97;;
12348;SDS011;5974;42.710;27.258;2023-10-13T03:28:08;3.20;;;1.60;;
12348;SDS011;5974;42.710;27.258;2023-10-13T03:30:41;3.83;;;1.70;;
12348;SDS011;5974;42.710;27.258;2023-10-13T03:33:09;3.50;;;1.70;;
12348;SDS011;5974;42.710;27.258;2023-10-13T03:35:37;4.27;;;1.90;;
12348;SDS011;5974;42.710;27.258;2023-10-13T03:38:06;6.87;;;2.20;;
12348;SDS011;5974;42.710;27.258;2023-10-13T03:40:41;4.20;;;1.70;;
12348;SDS011;5974;42.710;27.258;2023-10-13T03:43:24;3.73;;;1.83;;
12348;SDS011;5974;42.710;27.258;2023-10-13T03:45:56;2.67;;;1.80;;
12348;SDS011;5974;42.710;27.258;2023-10-13T03:48:33;3.70;;;1.90;;
12348;SDS011;5974;42.710;27.258;2023-10-13T03:51:16;2.40;;;1.80;;
12348;SDS011;5974;42.710;27.258;2023-10-13T03:53:43;3.60;;;1.97;;
12348;SDS011;5974;42.710;27.258;2023-10-13T03:56:18;9.00;;;2.23;;
12348;SDS011;5974;42.710;27.258;2023-10-13T03:58:51;3.50;;;1.87;;
12348;SDS011;5974;42.710;27.258;2023-10-13T04:01:20;3.30;;;1.87;;
12348;SDS011;5974;42.710;27.258;2023-10-13T04:03:56;2.17;;;1.70;;
12348;SDS011;5974;42.710;27.258;2023-10-13T04:06:28;2.10;;;1.60;;
12348;SDS011;5974;42.710;27.258;2023-10-13T04:09:22;3.93;;;2.27;;
12348;SDS011;5974;42.710;27.258;2023-10-13T04:12:07;3.47;;;1.80;;
12348;SDS011;5974;42.710;27.258;2023-10-13T04:15:04;6.00;;;1.87;;
12348;SDS011;5974;42.710;27.258;2023-10-13T04:17:43;2.40;;;1.60;;
12348;SDS011;5974;42.710;27.258;2023-10-13T04:20:11;1.90;;;1.80;;
12348;SDS011;5974;42.710;27.258;2023-10-13T04:23:05;3.47;;;1.90;;
12348;SDS011;5974;42.710;27.258;2023-10-13T04:25:52;2.23;;;1.90;;
12348;SDS011;5974;42.710;27.258;2023-10-13T04:28:33;4.17;;;1.80;;
12348;SDS011;5974;42.710;27.258;2023-10-13T04:31:00;7.47;;;1.90;;
12348;SDS011;5974;42.710;27.258;2023-10-13T04:33:37;4.30;;;1.80;;
12348;SDS011;5974;42.710;27.258;2023-10-13T04:36:16;4.17;;;1.63;;
12348;SDS011;5974;42.710;27.258;2023-10-13T04:39:02;2.17;;;1.60;;
12348;SDS011;5974;42.710;27.258;2023-10-13T04:41:35;2.63;;;1.70;;
12348;SDS011;5974;42.710;27.258;2023-10-13T04:44:04;4.13;;;2.23;;
12348;SDS011;5974;42.710;27.258;2023-10-13T04:46:49;2.57;;;1.50;;
12348;SDS011;5974;42.710;27.258;2023-10-13T04:49:34;4.53;;;2.07;;
12348;SDS011;5974;42.710;27.258;2023-10-13T04:52:17;6.87;;;1.70;;
12348;SDS011;5974;42.710;27.258;2023-10-13T04:55:06;4.63;;;1.77;;
12348;SDS011;5974;42.710;27.258;2023-10-13T04:57:42;4.43;;;1.70;;
12348;SDS011;5974;42.710;27.258;2023-10-13T05:00:25;3.13;;;2.10;;
12348;SDS011;5974;42.710;27.258;2023-10-13T05:03:10;10.83;;;2.40;;
12348;SDS011;5974;42.710;27.258;2023-10-13T05:05:54;5.73;;;2.33;;
12348;SDS011;5974;42.710;27.258;2023-10-13T05:08:52;13.73;;;2.27;;
12348;SDS011;5974;42.710;27.258;2023-10-13T05:11:38;3.47;;;1.60;;
12348;SDS011;5974;42.710;27.258;2023-10-13T05:14:22;11.63;;;2.47;;
12348;SDS011;5974;42.710;27.258;2023-10-13T05:17:06;6.77;;;2.37;;
12348;SDS011;5974;42.710;27.258;2023-10-13T05:19:50;4.63;;;1.60;;
12348;SDS011;5974;42.710;27.258;2023-10-13T05:22:39;5.23;;;1.97;;
12348;SDS011;5974;42.710;27.258;2023-10-13T05:25:24;3.73;;;1.60;;
12348;SDS011;5974;42.710;27.258;2023-10-13T05:28:10;3.27;;;1.50;;
12348;SDS011;5974;42.710;27.258;2023-10-13T05:30:54;3.57;;;2.23;;
12348;SDS011;5974;42.710;27.258;2023-10-13T05:33:38;5.20;;;2.10;;
12348;SDS011;5974;42.710;27.258;2023-10-13T05:36:22;4.67;;;2.30;;
12348;SDS011;5974;42.710;27.258;2023-10-13T05:39:06;5.60;;;2.37;;
12348;SDS011;5974;42.710;27.258;2023-10-13T05:41:50;10.30;;;2.30;;
12348;SDS011;5974;42.710;27.258;2023-10-13T05:44:36;9.07;;;2.13;;
12348;SDS011;5974;42.710;27.258;2023-10-13T05:47:21;4.07;;;2.13;;
12348;SDS011;5974;42.710;27.258;2023-10-13T05:50:17;4.73;;;2.13;;
12348;SDS011;5974;42.710;27.258;2023-10-13T05:53:15;5.43;;;2.00;;
12348;SDS011;5974;42.710;27.258;2023-10-13T05:56:03;3.60;;;2.30;;
12348;SDS011;5974;42.710;27.258;2023-10-13T05:58:47;5.23;;;3.20;;
12348;SDS011;5974;42.710;27.258;2023-10-13T06:01:33;6.93;;;2.97;;
12348;SDS011;5974;42.710;27.258;2023-10-13T06:04:17;7.77;;;3.70;;
12348;SDS011;5974;42.710;27.258;2023-10-13T06:07:01;8.47;;;4.30;;
12348;SDS011;5974;42.710;27.258;2023-10-13T06:09:46;11.03;;;4.53;;
12348;SDS011;5974;42.710;27.258;2023-10-13T06:12:30;8.03;;;4.40;;
12348;SDS011;5974;42.710;27.258;2023-10-13T06:15:15;6.77;;;3.33;;
12348;SDS011;5974;42.710;27.258;2023-10-13T06:18:01;9.50;;;5.47;;
12348;SDS011;5974;42.710;27.258;2023-10-13T06:20:45;16.80;;;7.50;;
12348;SDS011;5974;42.710;27.258;2023-10-13T06:23:29;15.20;;;6.50;;
12348;SDS011;5974;42.710;27.258;2023-10-13T06:26:14;8.10;;;3.70;;
12348;SDS011;5974;42.710;27.258;2023-10-13T06:28:58;8.57;;;2.70;;
12348;SDS011;5974;42.710;27.258;2023-10-13T06:31:25;5.13;;;2.17;;
12348;SDS011;5974;42.710;27.258;2023-10-13T06:33:53;5.40;;;2.20;;
12348;SDS011;5974;42.710;27.258;2023-10-13T06:36:21;4.27;;;2.07;;
12348;SDS011;5974;42.710;27.258;2023-10-13T06:38:48;7.97;;;2.40;;
12348;SDS011;5974;42.710;27.258;2023-10-13T06:41:41;5.77;;;2.47;;
12348;SDS011;5974;42.710;27.258;2023-10-13T06:44:09;6.63;;;2.23;;
12348;SDS011;5974;42.710;27.258;2023-10-13T06:46:40;3.67;;;2.47;;
12348;SDS011;5974;42.710;27.258;2023-10-13T06:49:10;6.70;;;2.33;;
12348;SDS011;5974;42.710;27.258;2023-10-13T06:51:38;5.63;;;2.53;;
12348;SDS011;5974;42.710;27.258;2023-10-13T06:54:05;6.70;;;2.43;;
12348;SDS011;5974;42.710;27.258;2023-10-13T06:56:44;8.97;;;2.50;;
12348;SDS011;5974;42.710;27.258;2023-10-13T06:59:11;6.23;;;2.10;;
12348;SDS011;5974;42.710;27.258;2023-10-13T07:01:39;5.97;;;2.77;;
12348;SDS011;5974;42.710;27.258;2023-10-13T07:04:07;4.67;;;1.93;;
12348;SDS011;5974;42.710;27.258;2023-10-13T07:06:41;3.57;;;2.30;;
12348;SDS011;5974;42.710;27.258;2023-10-13T07:09:13;6.20;;;2.20;;
12348;SDS011;5974;42.710;27.258;2023-10-13T07:12:01;10.03;;;2.47;;
12348;SDS011;5974;42.710;27.258;2023-10-13T07:14:31;5.80;;;2.40;;
12348;SDS011;5974;42.710;27.258;2023-10-13T07:17:00;11.70;;;2.73;;
12348;SDS011;5974;42.710;27.258;2023-10-13T07:19:28;3.97;;;2.20;;
12348;SDS011;5974;42.710;27.258;2023-10-13T07:21:57;5.23;;;2.30;;
12348;SDS011;5974;42.710;27.258;2023-10-13T07:24:25;5.53;;;2.33;;
12348;SDS011;5974;42.710;27.258;2023-10-13T07:26:56;5.20;;;2.20;;
12348;SDS011;5974;42.710;27.258;2023-10-13T07:29:28;6.93;;;1.90;;
12348;SDS011;5974;42.710;27.258;2023-10-13T07:31:55;7.70;;;2.40;;
12348;SDS011;5974;42.710;27.258;2023-10-13T07:34:23;3.77;;;2.00;;
12348;SDS011;5974;42.710;27.258;2023-10-13T07:36:52;3.60;;;1.87;;
12348;SDS011;5974;42.710;27.258;2023-10-13T07:39:25;3.57;;;2.30;;
12348;SDS011;5974;42.710;27.258;2023-10-13T07:41:59;4.13;;;2.20;;
12348;SDS011;5974;42.710;27.258;2023-10-13T07:44:31;4.17;;;2.10;;
12348;SDS011;5974;42.710;27.258;2023-10-13T07:46:58;33.40;;;4.17;;
12348;SDS011;5974;42.710;27.258;2023-10-13T07:49:29;7.27;;;2.30;;
12348;SDS011;5974;42.710;27.258;2023-10-13T07:51:58;10.90;;;2.80;;
12348;SDS011;5974;42.710;27.258;2023-10-13T07:54:42;8.67;;;2.47;;
12348;SDS011;5974;42.710;27.258;2023-10-13T07:57:12;5.67;;;2.50;;
12348;SDS011;5974;42.710;27.258;2023-10-13T07:59:41;3.97;;;2.30;;
12348;SDS011;5974;42.710;27.258;2023-10-13T08:02:13;7.83;;;2.40;;
12348;SDS011;5974;42.710;27.258;2023-10-13T08:05:00;4.30;;;2.47;;
12348;SDS011;5974;42.710;27.258;2023-10-13T08:07:30;5.63;;;2.27;;
12348;SDS011;5974;42.710;27.258;2023-10-13T08:09:58;9.40;;;2.93;;
12348;SDS011;5974;42.710;27.258;2023-10-13T08:12:27;6.40;;;2.30;;
12348;SDS011;5974;42.710;27.258;2023-10-13T08:14:54;11.57;;;2.53;;
12348;SDS011;5974;42.710;27.258;2023-10-13T08:17:48;3.60;;;2.17;;
12348;SDS011;5974;42.710;27.258;2023-10-13T08:20:17;2.93;;;2.10;;
12348;SDS011;5974;42.710;27.258;2023-10-13T08:22:46;5.80;;;2.33;;
12348;SDS011;5974;42.710;27.258;2023-10-13T08:25:14;5.97;;;2.33;;
12348;SDS011;5974;42.710;27.258;2023-10-13T08:27:50;4.83;;;2.30;;
12348;SDS011;5974;42.710;27.258;2023-10-13T08:30:50;2.83;;;2.37;;
12348;SDS011;5974;42.710;27.258;2023-10-13T08:33:22;6.27;;;2.40;;
12348;SDS011;5974;42.710;27.258;2023-10-13T08:35:52;8.97;;;3.13;;
12348;SDS011;5974;42.710;27.258;2023-10-13T08:38:43;7.60;;;2.93;;
12348;SDS011;5974;42.710;27.258;2023-10-13T08:41:17;5.23;;;2.70;;
12348;SDS011;5974;42.710;27.258;2023-10-13T08:44:01;4.53;;;2.63;;
12348;SDS011;5974;42.710;27.258;2023-10-13T08:46:34;8.73;;;2.83;;
12348;SDS011;5974;42.710;27.258;2023-10-13T08:49:30;4.53;;;2.50;;
12348;SDS011;5974;42.710;27.258;2023-10-13T08:52:05;6.50;;;2.87;;
12348;SDS011;5974;42.710;27.258;2023-10-13T08:54:54;7.50;;;2.83;;
12348;SDS011;5974;42.710;27.258;2023-10-13T08:58:00;7.27;;;2.93;;
12348;SDS011;5974;42.710;27.258;2023-10-13T09:00:38;10.20;;;3.10;;
12348;SDS011;5974;42.710;27.258;2023-10-13T09:03:37;5.97;;;3.57;;
12348;SDS011;5974;42.710;27.258;2023-10-13T09:06:12;4.37;;;2.60;;
12348;SDS011;5974;42.710;27.258;2023-10-13T09:08:40;6.57;;;2.87;;
12348;SDS011;5974;42.710;27.258;2023-10-13T09:11:23;4.33;;;2.80;;
12348;SDS011;5974;42.710;27.258;2023-10-13T09:13:52;10.57;;;3.00;;
12348;SDS011;5974;42.710;27.258;2023-10-13T09:16:19;5.97;;;2.50;;
12348;SDS011;5974;42.710;27.258;2023-10-13T09:19:08;8.20;;;2.90;;
12348;SDS011;5974;42.710;27.258;2023-10-13T09:21:41;6.40;;;2.60;;
12348;SDS011;5974;42.710;27.258;2023-10-13T09:24:19;5.53;;;2.83;;
12348;SDS011;5974;42.710;27.258;2023-10-13T09:26:52;9.77;;;2.93;;
12348;SDS011;5974;42.710;27.258;2023-10-13T09:29:20;4.00;;;2.53;;
12348;SDS011;5974;42.710;27.258;2023-10-13T09:31:58;7.47;;;2.73;;
12348;SDS011;5974;42.710;27.258;2023-10-13T09:34:25;4.97;;;2.60;;
12348;SDS011;5974;42.710;27.258;2023-10-13T09:36:58;7.23;;;3.20;;
12348;SDS011;5974;42.710;27.258;2023-10-13T09:39:28;10.03;;;4.40;;
12348;SDS011;5974;42.710;27.258;2023-10-13T09:42:07;4.13;;;2.83;;
12348;SDS011;5974;42.710;27.258;2023-10-13T09:44:35;7.10;;;2.93;;
12348;SDS011;5974;42.710;27.258;2023-10-13T09:47:06;5.73;;;2.97;;
12348;SDS011;5974;42.710;27.258;2023-10-13T09:49:43;5.73;;;2.70;;
12348;SDS011;5974;42.710;27.258;2023-10-13T09:52:16;5.00;;;2.83;;
12348;SDS011;5974;42.710;27.258;2023-10-13T09:57:41;6.07;;;3.17;;
12348;SDS011;5974;42.710;27.258;2023-10-13T10:00:15;6.30;;;2.40;;
12348;SDS011;5974;42.710;27.258;2023-10-13T10:03:09;4.27;;;2.57;;
12348;SDS011;5974;42.710;27.258;2023-10-13T10:05:55;5.53;;;2.60;;
12348;SDS011;5974;42.710;27.258;2023-10-13T10:08:31;3.43;;;2.70;;
12348;SDS011;5974;42.710;27.258;2023-10-13T10:14:13;5.20;;;2.70;;
12348;SDS011;5974;42.710;27.258;2023-10-13T10:16:50;7.10;;;2.43;;
12348;SDS011;5974;42.710;27.258;2023-10-13T10:19:33;5.77;;;2.43;;
12348;SDS011;5974;42.710;27.258;2023-10-13T10:22:01;4.10;;;2.50;;
12348;SDS011;5974;42.710;27.258;2023-10-13T10:24:37;3.33;;;2.30;;
12348;SDS011;5974;42.710;27.258;2023-10-13T10:27:03;4.23;;;2.70;;
12348;SDS011;5974;42.710;27.258;2023-10-13T10:29:31;4.73;;;2.43;;
12348;SDS011;5974;42.710;27.258;2023-10-13T10:31:59;9.43;;;2.37;;
12348;SDS011;5974;42.710;27.258;2023-10-13T10:34:32;2.37;;;2.13;;
12348;SDS011;5974;42.710;27.258;2023-10-13T10:37:00;8.80;;;2.80;;
12348;SDS011;5974;42.710;27.258;2023-10-13T10:39:34;4.33;;;2.30;;
12348;SDS011;5974;42.710;27.258;2023-10-13T10:42:12;10.67;;;2.70;;
12348;SDS011;5974;42.710;27.258;2023-10-13T10:44:49;2.87;;;1.90;;
12348;SDS011;5974;42.710;27.258;2023-10-13T10:47:20;3.80;;;2.03;;
12348;SDS011;5974;42.710;27.258;2023-10-13T10:49:56;3.83;;;1.70;;
12348;SDS011;5974;42.710;27.258;2023-10-13T10:52:23;3.33;;;1.80;;
12348;SDS011;5974;42.710;27.258;2023-10-13T10:55:02;3.27;;;1.77;;
12348;SDS011;5974;42.710;27.258;2023-10-13T10:57:34;4.23;;;1.93;;
12348;SDS011;5974;42.710;27.258;2023-10-13T11:00:03;2.17;;;2.07;;
12348;SDS011;5974;42.710;27.258;2023-10-13T11:02:39;4.30;;;1.80;;
12348;SDS011;5974;42.710;27.258;2023-10-13T11:05:06;3.63;;;2.00;;
12348;SDS011;5974;42.710;27.258;2023-10-13T11:07:35;4.87;;;2.10;;
12348;SDS011;5974;42.710;27.258;2023-10-13T11:10:08;3.53;;;1.67;;
12348;SDS011;5974;42.710;27.258;2023-10-13T11:12:54;2.40;;;2.03;;
12348;SDS011;5974;42.710;27.258;2023-10-13T11:15:22;3.43;;;1.73;;
12348;SDS011;5974;42.710;27.258;2023-10-13T11:17:58;6.03;;;2.30;;
12348;SDS011;5974;42.710;27.258;2023-10-13T11:20:25;4.50;;;2.03;;
12348;SDS011;5974;42.710;27.258;2023-10-13T11:22:58;6.07;;;2.73;;
12348;SDS011;5974;42.710;27.258;2023-10-13T11:25:25;2.70;;;2.30;;
12348;SDS011;5974;42.710;27.258;2023-10-13T11:28:09;2.77;;;1.90;;
12348;SDS011;5974;42.710;27.258;2023-10-13T11:30:42;5.80;;;2.30;;
12348;SDS011;5974;42.710;27.258;2023-10-13T11:33:14;4.03;;;2.70;;
12348;SDS011;5974;42.710;27.258;2023-10-13T11:35:44;8.00;;;3.03;;
12348;SDS011;5974;42.710;27.258;2023-10-13T11:38:27;7.50;;;3.40;;
12348;SDS011;5974;42.710;27.258;2023-10-13T11:40:55;5.20;;;3.43;;
12348;SDS011;5974;42.710;27.258;2023-10-13T11:43:41;4.13;;;3.07;;
12348;SDS011;5974;42.710;27.258;2023-10-13T11:46:32;3.63;;;3.20;;
12348;SDS011;5974;42.710;27.258;2023-10-13T11:49:16;3.60;;;3.03;;
12348;SDS011;5974;42.710;27.258;2023-10-13T11:51:57;6.50;;;3.20;;
12348;SDS011;5974;42.710;27.258;2023-10-13T11:54:34;5.03;;;2.80;;
12348;SDS011;5974;42.710;27.258;2023-10-13T11:57:07;5.30;;;3.53;;
12348;SDS011;5974;42.710;27.258;2023-10-13T11:59:35;5.70;;;3.63;;
12348;SDS011;5974;42.710;27.258;2023-10-13T12:02:10;3.27;;;1.90;;
12348;SDS011;5974;42.710;27.258;2023-10-13T12:04:56;3.10;;;1.77;;
12348;SDS011;5974;42.710;27.258;2023-10-13T12:07:24;2.47;;;2.17;;
12348;SDS011;5974;42.710;27.258;2023-10-13T12:10:08;3.30;;;3.00;;
12348;SDS011;5974;42.710;27.258;2023-10-13T12:12:42;4.50;;;2.60;;
12348;SDS011;5974;42.710;27.258;2023-10-13T12:15:13;4.00;;;2.50;;
12348;SDS011;5974;42.710;27.258;2023-10-13T12:17:50;3.43;;;2.57;;
12348;SDS011;5974;42.710;27.258;2023-10-13T12:20:17;4.23;;;2.60;;
12348;SDS011;5974;42.710;27.258;2023-10-13T12:22:57;7.70;;;2.60;;
12348;SDS011;5974;42.710;27.258;2023-10-13T12:25:35;3.23;;;2.37;;
12348;SDS011;5974;42.710;27.258;2023-10-13T12:28:20;6.33;;;2.23;;
12348;SDS011;5974;42.710;27.258;2023-10-13T12:30:50;2.67;;;2.30;;
12348;SDS011;5974;42.710;27.258;2023-10-13T12:33:17;12.27;;;8.40;;
12348;SDS011;5974;42.710;27.258;2023-10-13T12:35:50;7.90;;;3.43;;
12348;SDS011;5974;42.710;27.258;2023-10-13T12:38:31;4.20;;;3.53;;
12348;SDS011;5974;42.710;27.258;2023-10-13T12:41:37;12.83;;;3.53;;
12348;SDS011;5974;42.710;27.258;2023-10-13T12:44:21;4.30;;;3.60;;
12348;SDS011;5974;42.710;27.258;2023-10-13T12:47:07;4.70;;;2.53;;
12348;SDS011;5974;42.710;27.258;2023-10-13T12:49:51;10.10;;;3.03;;
12348;SDS011;5974;42.710;27.258;2023-10-13T12:52:25;5.23;;;2.80;;
12348;SDS011;5974;42.710;27.258;2023-10-13T12:54:52;4.70;;;3.23;;
12348;SDS011;5974;42.710;27.258;2023-10-13T12:57:31;2.83;;;2.50;;
12348;SDS011;5974;42.710;27.258;2023-10-13T12:59:59;3.57;;;2.10;;
12348;SDS011;5974;42.710;27.258;2023-10-13T13:02:42;2.30;;;2.10;;
12348;SDS011;5974;42.710;27.258;2023-10-13T13:05:09;4.20;;;2.20;;
12348;SDS011;5974;42.710;27.258;2023-10-13T13:07:38;3.83;;;2.30;;
12348;SDS011;5974;42.710;27.258;2023-10-13T13:10:12;8.03;;;2.53;;
12348;SDS011;5974;42.710;27.258;2023-10-13T13:12:40;5.03;;;2.57;;
12348;SDS011;5974;42.710;27.258;2023-10-13T13:15:07;4.73;;;2.37;;
12348;SDS011;5974;42.710;27.258;2023-10-13T13:17:35;4.20;;;2.80;;
12348;SDS011;5974;42.710;27.258;2023-10-13T13:20:07;6.97;;;2.40;;
12348;SDS011;5974;42.710;27.258;2023-10-13T13:22:51;2.37;;;2.17;;
12348;SDS011;5974;42.710;27.258;2023-10-13T13:25:19;2.93;;;2.43;;
12348;SDS011;5974;42.710;27.258;2023-10-13T13:27:50;3.63;;;2.50;;
12348;SDS011;5974;42.710;27.258;2023-10-13T13:30:17;5.10;;;2.40;;
12348;SDS011;5974;42.710;27.258;2023-10-13T13:32:46;3.40;;;2.40;;
12348;SDS011;5974;42.710;27.258;2023-10-13T13:35:14;4.50;;;2.50;;
12348;SDS011;5974;42.710;27.258;2023-10-13T13:37:43;7.53;;;2.70;;
12348;SDS011;5974;42.710;27.258;2023-10-13T13:40:11;4.00;;;2.37;;
12348;SDS011;5974;42.710;27.258;2023-10-13T13:42:41;6.73;;;2.13;;
12348;SDS011;5974;42.710;27.258;2023-10-13T13:45:11;2.50;;;2.30;;
12348;SDS011;5974;42.710;27.258;2023-10-13T13:47:50;3.87;;;1.90;;
12348;SDS011;5974;42.710;27.258;2023-10-13T13:50:20;4.60;;;2.40;;
12348;SDS011;5974;42.710;27.258;2023-10-13T13:52:52;4.17;;;2.60;;
12348;SDS011;5974;42.710;27.258;2023-10-13T13:55:21;6.80;;;2.50;;
12348;SDS011;5974;42.710;27.258;2023-10-13T13:57:48;3.23;;;2.30;;
12348;SDS011;5974;42.710;27.258;2023-10-13T14:00:16;3.73;;;2.50;;
12348;SDS011;5974;42.710;27.258;2023-10-13T14:02:48;3.97;;;2.80;;
12348;SDS011;5974;42.710;27.258;2023-10-13T14:05:15;11.17;;;5.03;;
12348;SDS011;5974;42.710;27.258;2023-10-13T14:07:44;15.90;;;8.47;;
12348;SDS011;5974;42.710;27.258;2023-10-13T14:10:15;5.80;;;3.10;;
12348;SDS011;5974;42.710;27.258;2023-10-13T14:12:57;5.63;;;2.37;;
12348;SDS011;5974;42.710;27.258;2023-10-13T14:15:32;12.43;;;2.67;;
12348;SDS011;5974;42.710;27.258;2023-10-13T14:18:05;10.20;;;2.30;;
12348;SDS011;5974;42.710;27.258;2023-10-13T14:20:39;7.83;;;2.57;;
12348;SDS011;5974;42.710;27.258;2023-10-13T14:23:08;8.83;;;2.57;;
12348;SDS011;5974;42.710;27.258;2023-10-13T14:25:37;12.70;;;2.67;;
12348;SDS011;5974;42.710;27.258;2023-10-13T14:28:09;8.70;;;2.43;;
12348;SDS011;5974;42.710;27.258;2023-10-13T14:30:40;10.17;;;2.50;;
12348;SDS011;5974;42.710;27.258;2023-10-13T14:33:07;9.90;;;2.37;;
12348;SDS011;5974;42.710;27.258;2023-10-13T14:35:36;3.93;;;2.23;;
12348;SDS011;5974;42.710;27.258;2023-10-13T14:38:03;8.43;;;2.30;;
12348;SDS011;5974;42.710;27.258;2023-10-13T14:40:31;5.10;;;2.43;;
12348;SDS011;5974;42.710;27.258;2023-10-13T14:42:58;4.93;;;2.50;;
12348;SDS011;5974;42.710;27.258;2023-10-13T14:45:25;4.13;;;2.40;;
12348;SDS011;5974;42.710;27.258;2023-10-13T14:47:52;5.07;;;2.30;;
12348;SDS011;5974;42.710;27.258;2023-10-13T14:50:19;7.00;;;2.50;;
12348;SDS011;5974;42.710;27.258;2023-10-13T14:52:46;9.77;;;2.60;;
12348;SDS011;5974;42.710;27.258;2023-10-13T14:55:14;8.57;;;2.60;;
12348;SDS011;5974;42.710;27.258;2023-10-13T14:58:04;2.87;;;2.20;;
12348;SDS011;5974;42.710;27.258;2023-10-13T15:00:33;7.73;;;2.70;;
12348;SDS011;5974;42.710;27.258;2023-10-13T15:03:00;15.87;;;3.30;;
12348;SDS011;5974;42.710;27.258;2023-10-13T15:05:28;5.13;;;2.87;;
12348;SDS011;5974;42.710;27.258;2023-10-13T15:07:56;10.60;;;2.90;;
12348;SDS011;5974;42.710;27.258;2023-10-13T15:10:23;11.03;;;4.70;;
12348;SDS011;5974;42.710;27.258;2023-10-13T15:12:52;5.53;;;2.70;;
12348;SDS011;5974;42.710;27.258;2023-10-13T15:15:20;6.00;;;2.67;;
12348;SDS011;5974;42.710;27.258;2023-10-13T15:17:47;6.97;;;2.50;;
12348;SDS011;5974;42.710;27.258;2023-10-13T15:20:15;9.17;;;6.50;;
12348;SDS011;5974;42.710;27.258;2023-10-13T15:22:42;24.93;;;17.57;;
12348;SDS011;5974;42.710;27.258;2023-10-13T15:25:09;13.83;;;11.00;;
12348;SDS011;5974;42.710;27.258;2023-10-13T15:27:46;6.37;;;2.80;;
12348;SDS011;5974;42.710;27.258;2023-10-13T15:30:22;11.33;;;3.07;;
12348;SDS011;5974;42.710;27.258;2023-10-13T15:32:51;11.30;;;3.97;;
12348;SDS011;5974;42.710;27.258;2023-10-13T15:35:22;6.87;;;2.50;;